Time;durP1;ratioP1;P1;durP2;ratioP2;P2;SDS_P1;SDS_P2;PMS_P1;PMS_P2;Temp;Humidity;BMP_temperature;BMP_pressure;BME280_temperature;BME280_humidity;BME280_pressure;Samples;Min_cycle;Max_cycle;Signal;HPM_P1;HPM_P2
2021/06/05 00:00:09;;;;;;;70.72;40.65;;;;;;;-150.07;62.32;62631.84;5003107;28;20127;-83
2021/06/05 00:02:36;;;;;;;69.80;41.47;;;;;;;-150.07;61.99;62872.56;4991732;28;20034;-85
2021/06/05 00:05:06;;;;;;;68.68;41.53;;;;;;;-150.07;61.06;63291.22;4998014;28;20026;-83
2021/06/05 00:07:33;;;;;;;65.57;40.30;;;;;;;-150.07;61.39;62592.06;4989823;28;20025;-81
2021/06/05 00:10:00;;;;;;;70.43;42.08;;;;;;;-150.07;61.65;62575.31;5008511;28;20057;-82
2021/06/05 00:12:29;;;;;;;72.25;41.08;;;;;;;-150.07;62.43;62529.28;5004598;28;20019;-85
2021/06/05 00:14:56;;;;;;;70.15;39.50;;;;;;;-150.07;62.95;62552.31;5003673;28;20093;-84
2021/06/05 00:17:24;;;;;;;69.63;40.20;;;;;;;-150.07;63.20;62516.72;4990605;28;20030;-83
2021/06/05 00:19:51;;;;;;;79.07;41.80;;;;;;;-150.07;62.52;62581.59;5009660;28;20026;-86
2021/06/05 00:22:18;;;;;;;71.25;37.78;;;;;;;-150.07;61.55;62728.13;5001337;28;20509;-85
2021/06/05 00:24:45;;;;;;;62.33;38.47;;;;;;;-150.07;60.57;63529.91;5003755;28;20022;-85
2021/06/05 00:27:12;;;;;;;64.13;38.03;;;;;;;-150.07;60.37;62757.44;4983839;28;20029;-84
2021/06/05 00:29:39;;;;;;;68.55;39.17;;;;;;;-150.07;59.49;62864.19;5002935;28;20022;-87
2021/06/05 00:32:06;;;;;;;60.80;36.58;;;;;;;-150.07;59.69;62855.81;4992828;28;20113;-88
2021/06/05 00:34:36;;;;;;;69.78;39.63;;;;;;;-150.07;60.41;63402.19;4991991;28;20026;-91
2021/06/05 00:37:03;;;;;;;67.07;38.72;;;;;;;-150.07;60.07;62615.09;4997937;28;20041;-87
2021/06/05 00:39:31;;;;;;;71.47;37.65;;;;;;;-150.07;59.54;63291.22;5000491;28;20123;-95
2021/06/05 00:41:58;;;;;;;67.07;36.75;;;;;;;-150.07;58.50;62857.91;4990415;28;20025;-88
2021/06/05 00:44:25;;;;;;;65.00;37.88;;;;;;;-150.07;58.61;63374.97;4990062;28;20036;-85
2021/06/05 00:46:52;;;;;;;54.70;35.20;;;;;;;-150.07;58.19;62996.06;5007211;28;20450;-81
2021/06/05 00:49:19;;;;;;;61.20;41.28;;;;;;;-150.07;57.92;62751.16;5006625;28;20060;-88
2021/06/05 00:51:51;;;;;;;61.47;35.63;;;;;;;-150.07;58.17;63063.06;4971394;28;20453;-82
2021/06/05 00:54:20;;;;;;;61.88;35.92;;;;;;;-150.07;57.50;63063.06;5003608;28;20037;-81
2021/06/05 00:56:54;;;;;;;72.22;37.05;;;;;;;-150.07;57.19;63153.06;5011811;28;20048;-85
2021/06/05 00:59:22;;;;;;;62.25;38.45;;;;;;;-150.07;56.50;63770.66;5004743;28;20034;-86
2021/06/05 01:01:49;;;;;;;71.88;37.63;;;;;;;-150.07;56.62;63169.81;4991720;28;20061;-87
2021/06/05 01:04:17;;;;;;;65.80;36.80;;;;;;;-150.07;56.88;63107.00;4988189;28;20026;-85
2021/06/05 01:06:54;;;;;;;65.70;38.53;;;;;;;-150.07;56.66;63144.69;4991231;28;20038;-84
2021/06/05 01:09:44;;;;;;;59.35;38.55;;;;;;;-150.07;56.18;63257.75;4991271;28;20040;-93
2021/06/05 01:12:14;;;;;;;68.63;40.55;;;;;;;-150.07;56.63;63163.53;4988992;28;20037;-84
2021/06/05 01:15:06;;;;;;;67.50;42.25;;;;;;;-150.07;56.79;63123.75;4992424;28;20546;-85
2021/06/05 01:17:38;;;;;;;72.03;41.25;;;;;;;-150.07;57.16;62993.97;4987334;28;20026;-85
2021/06/05 01:20:31;;;;;;;68.90;41.25;;;;;;;-150.07;57.10;62811.84;5014612;28;20037;-86
2021/06/05 01:23:18;;;;;;;83.45;43.17;;;;;;;-150.07;56.46;63065.16;5013678;28;20056;-87
2021/06/05 01:25:54;;;;;;;71.95;42.33;;;;;;;-150.07;56.16;63253.56;5016440;28;20094;-85
2021/06/05 01:28:44;;;;;;;64.40;41.15;;;;;;;-150.07;55.77;63374.97;4996477;28;20481;-87
2021/06/05 01:31:17;;;;;;;;;;;;;;;-150.07;55.58;63333.09;4976568;28;20044;-88
2021/06/05 01:33:45;;;;;;;59.03;39.33;;;;;;;-150.07;55.55;63372.88;4997604;28;19924;-85
2021/06/05 01:36:14;;;;;;;76.55;44.45;;;;;;;-150.07;54.65;63441.97;4988756;28;20035;-88
2021/06/05 01:38:45;;;;;;;69.45;42.47;;;;;;;-150.07;55.45;63351.94;4963554;28;20133;-84
2021/06/05 01:41:14;;;;;;;74.13;42.72;;;;;;;-150.07;55.67;63194.94;4994027;28;20025;-86
2021/06/05 01:43:44;;;;;;;78.85;44.42;;;;;;;-150.07;56.07;63266.09;4995996;28;20042;-87
2021/06/05 01:46:18;;;;;;;69.15;41.63;;;;;;;-150.07;55.96;63354.03;5010113;28;20034;-88
2021/06/05 01:48:45;;;;;;;81.72;44.45;;;;;;;-150.07;56.26;63224.25;4979374;28;20045;-87
2021/06/05 01:51:17;;;;;;;80.03;47.00;;;;;;;-150.07;56.17;63284.94;4976123;28;20030;-87
2021/06/05 01:53:59;;;;;;;71.32;43.67;;;;;;;-150.07;55.60;63328.91;4976204;28;20023;-87
2021/06/05 01:56:56;;;;;;;73.00;43.38;;;;;;;-150.07;55.25;63423.13;4985533;28;20034;-88
2021/06/05 01:59:24;;;;;;;77.63;46.45;;;;;;;-150.07;55.72;63190.75;4988033;28;20041;-87
2021/06/05 02:01:51;;;;;;;78.75;46.83;;;;;;;-150.07;55.35;63261.94;4976599;28;20050;-87
2021/06/05 02:04:18;;;;;;;70.75;47.42;;;;;;;-150.07;57.16;63140.50;4976397;28;20030;-88
2021/06/05 02:06:49;;;;;;;72.07;44.92;;;;;;;-150.07;56.80;62818.13;4975769;28;20037;-87
2021/06/05 02:09:19;;;;;;;92.40;50.88;;;;;;;-150.07;56.25;63282.84;4982059;28;20138;-88
2021/06/05 02:12:19;;;;;;;84.70;49.40;;;;;;;-150.07;56.32;63289.13;4995704;28;20029;-89
2021/06/05 02:14:51;;;;;;;71.05;45.35;;;;;;;-150.07;56.16;63345.66;4997659;28;20030;-86
2021/06/05 02:17:20;;;;;;;87.45;50.28;;;;;;;-150.07;56.33;63190.75;4994806;28;20072;-89
2021/06/05 02:19:58;;;;;;;82.60;49.80;;;;;;;-150.07;56.21;63226.34;4996477;28;20121;-87
2021/06/05 02:22:28;;;;;;;81.15;48.25;;;;;;;-150.07;55.65;63345.66;4996341;28;20057;-88
2021/06/05 02:24:59;;;;;;;81.65;50.72;;;;;;;-150.07;55.44;63349.84;4996314;28;20446;-89
2021/06/05 02:27:29;;;;;;;91.03;53.17;;;;;;;-150.07;56.24;63165.63;4994595;28;20026;-87
2021/06/05 02:29:56;;;;;;;;;;;;;;;-150.07;56.49;63159.34;4996688;28;20076;-84
2021/06/05 02:32:29;;;;;;;94.00;55.42;;;;;;;-150.07;56.16;63276.56;4990588;28;20048;-87
2021/06/05 02:34:58;;;;;;;88.05;53.03;;;;;;;-150.07;54.62;63335.19;4994918;28;20483;-87
2021/06/05 02:37:28;;;;;;;81.32;49.28;;;;;;;-150.07;54.88;63345.66;4982355;28;20088;-88
2021/06/05 02:40:01;;;;;;;83.97;49.22;;;;;;;-150.07;54.74;63345.66;4979521;28;20030;-86
2021/06/05 02:42:28;;;;;;;82.40;49.63;;;;;;;-150.07;55.75;63312.16;4975938;28;20068;-88
2021/06/05 02:44:57;;;;;;;80.85;51.63;;;;;;;-150.07;54.99;63238.91;4994756;28;20026;-86
2021/06/05 02:47:26;;;;;;;83.97;51.20;;;;;;;-150.07;54.75;63203.31;4994993;28;20026;-87
2021/06/05 02:49:53;;;;;;;74.13;50.42;;;;;;;-150.07;54.84;63236.81;4994503;28;20029;-88
2021/06/05 02:52:31;;;;;;;83.07;53.70;;;;;;;-150.07;55.55;63314.25;4994999;28;20041;-88
2021/06/05 02:55:10;;;;;;;86.60;51.05;;;;;;;-150.07;55.18;63354.03;4990067;28;20087;-89
2021/06/05 02:57:37;;;;;;;83.78;50.25;;;;;;;-150.07;55.74;63245.19;5007803;28;20026;-88
2021/06/05 03:00:19;;;;;;;81.15;51.17;;;;;;;-150.07;56.21;63247.28;5014777;28;20465;-88
2021/06/05 03:02:46;;;;;;;93.35;52.65;;;;;;;-150.07;56.27;62985.59;4998303;28;20041;-88
2021/06/05 03:05:13;;;;;;;89.22;52.13;;;;;;;-150.07;56.36;63241.00;5015917;28;20026;-86
2021/06/05 03:07:40;;;;;;;79.97;52.00;;;;;;;-150.07;56.03;63247.28;4999103;28;20029;-87
2021/06/05 03:10:08;;;;;;;84.18;52.38;;;;;;;-150.07;55.66;63347.75;4993728;28;20487;-88
2021/06/05 03:12:34;;;;;;;89.53;54.33;;;;;;;-150.07;54.88;63161.44;5004783;28;20052;-89
2021/06/05 03:15:02;;;;;;;87.65;52.35;;;;;;;-150.07;55.59;63659.69;4995594;28;20057;-87
2021/06/05 03:17:29;;;;;;;88.10;51.55;;;;;;;-150.07;54.85;63398.00;5011715;28;20538;-81
2021/06/05 03:19:56;;;;;;;95.13;54.88;;;;;;;-150.07;54.21;63370.78;5014825;28;20026;-82
2021/06/05 03:22:23;;;;;;;85.85;53.65;;;;;;;-150.07;53.97;63816.72;5006142;28;20558;-81
2021/06/05 03:24:51;;;;;;;84.00;51.20;;;;;;;-150.07;53.56;63458.72;4999267;28;20038;-82
2021/06/05 03:27:20;;;;;;;87.60;55.70;;;;;;;-150.07;53.37;63404.28;4992437;28;20021;-80
2021/06/05 03:29:47;;;;;;;81.68;51.15;;;;;;;-150.07;53.51;63410.56;4999692;28;20597;-79
2021/06/05 03:32:14;;;;;;;86.72;53.05;;;;;;;-150.07;54.37;63366.59;4999205;28;20426;-83
2021/06/05 03:34:41;;;;;;;91.22;54.22;;;;;;;-150.07;54.02;63182.38;5002094;28;20093;-82
2021/06/05 03:37:09;;;;;;;88.30;54.53;;;;;;;-150.07;53.51;63163.53;4994074;28;20026;-82
2021/06/05 03:39:36;;;;;;;87.55;58.08;;;;;;;-150.07;53.64;63362.41;5005777;28;20073;-78
2021/06/05 03:42:03;;;;;;;90.70;55.08;;;;;;;-150.07;53.91;63320.53;4997011;28;20054;-81
2021/06/05 03:44:30;;;;;;;92.43;55.58;;;;;;;-150.07;53.61;63364.50;4996383;28;20019;-79
2021/06/05 03:46:57;;;;;;;85.07;52.55;;;;;;;-150.07;53.26;63157.25;5008714;28;20034;-84
2021/06/05 03:49:24;;;;;;;94.85;55.40;;;;;;;-150.07;53.16;63513.16;5004288;28;20030;-81
2021/06/05 03:51:51;;;;;;;98.18;55.75;;;;;;;-150.07;53.18;63546.66;4983798;28;20029;-80
2021/06/05 03:54:18;;;;;;;94.43;57.33;;;;;;;-150.07;53.71;63395.91;5014393;28;20025;-77
2021/06/05 03:56:45;;;;;;;94.22;58.88;;;;;;;-150.07;54.15;63019.09;4979389;28;20033;-81
2021/06/05 03:59:12;;;;;;;89.35;56.03;;;;;;;-150.07;54.65;63113.28;5008034;28;20038;-83
2021/06/05 04:01:39;;;;;;;95.43;57.30;;;;;;;-150.07;54.19;63119.56;4997292;28;20061;-82
2021/06/05 04:04:06;;;;;;;91.63;55.15;;;;;;;-150.07;53.80;63504.78;4996890;28;20061;-83
2021/06/05 04:06:34;;;;;;;99.47;55.15;;;;;;;-150.07;53.87;63473.38;4996316;28;20042;-82
2021/06/05 04:09:03;;;;;;;97.22;55.67;;;;;;;-150.07;53.87;63513.16;4999588;28;20065;-84
2021/06/05 04:11:33;;;;;;;88.03;53.50;;;;;;;-150.07;53.43;63699.47;4985339;28;20042;-81
2021/06/05 04:14:02;;;;;;;87.97;57.08;;;;;;;-150.07;53.77;64185.25;5006550;28;20050;-84
2021/06/05 04:16:29;;;;;;;96.95;56.85;;;;;;;-150.07;54.50;63437.78;4996115;28;20064;-81
2021/06/05 04:18:59;;;;;;;93.18;55.25;;;;;;;-150.07;54.75;63408.47;4994857;28;20533;-82
2021/06/05 04:21:25;;;;;;;;;;;;;;;-150.07;54.12;63450.34;5026345;28;20086;-82
2021/06/05 04:23:53;;;;;;;100.28;57.63;;;;;;;-150.07;54.29;63523.63;5027192;28;19917;-81
2021/06/05 04:26:21;;;;;;;100.55;58.33;;;;;;;-150.07;55.22;63303.78;5008287;28;20037;-83
2021/06/05 04:28:48;;;;;;;95.88;57.92;;;;;;;-150.07;55.08;63261.94;4991954;28;20168;-83
2021/06/05 04:31:15;;;;;;;84.75;55.42;;;;;;;-150.07;54.75;63450.34;4994968;28;20475;-84
2021/06/05 04:33:42;;;;;;;94.70;53.78;;;;;;;-150.07;54.72;63435.69;4989188;28;20030;-85
2021/06/05 04:36:13;;;;;;;91.68;54.25;;;;;;;-150.07;53.99;63454.53;4978096;28;20038;-84
2021/06/05 04:38:41;;;;;;;87.00;53.17;;;;;;;-150.07;53.67;64195.72;4981171;28;20019;-82
2021/06/05 04:41:10;;;;;;;82.88;51.00;;;;;;;-150.07;53.57;63580.16;4978270;28;20134;-84
2021/06/05 04:43:38;;;;;;;85.22;51.97;;;;;;;-150.07;53.30;63410.56;4993996;28;20495;-84
2021/06/05 04:46:07;;;;;;;87.70;53.88;;;;;;;-150.07;54.12;63418.94;4989816;28;20034;-84
2021/06/05 04:48:34;;;;;;;89.13;56.72;;;;;;;-150.07;53.93;63521.53;5009827;28;20042;-84
2021/06/05 04:51:01;;;;;;;86.68;52.83;;;;;;;-150.07;54.14;63374.97;4993767;28;20038;-84
2021/06/05 04:53:28;;;;;;;86.32;52.72;;;;;;;-150.07;53.75;64292.03;5012222;28;20037;-84
2021/06/05 04:55:55;;;;;;;87.68;55.95;;;;;;;-150.07;54.02;63207.50;4978477;28;20395;-84
2021/06/05 04:58:23;;;;;;;84.50;51.97;;;;;;;-150.07;53.88;63611.56;4986896;28;20394;-83
2021/06/05 05:00:52;;;;;;;86.00;52.45;;;;;;;-150.07;53.51;63488.03;5004699;28;20447;-84
2021/06/05 05:03:22;;;;;;;90.13;53.70;;;;;;;-150.07;53.68;63504.78;5022308;28;20081;-84
2021/06/05 05:05:52;;;;;;;83.85;52.45;;;;;;;-150.07;54.50;63427.31;4996345;28;20044;-83
2021/06/05 05:08:20;;;;;;;89.05;57.72;;;;;;;-150.07;54.37;63433.59;5000267;28;20121;-86
2021/06/05 05:10:50;;;;;;;87.53;51.67;;;;;;;-150.07;54.54;63718.31;5006697;28;20041;-85
2021/06/05 05:13:20;;;;;;;90.68;55.85;;;;;;;-150.07;53.44;63362.41;5020082;28;20461;-84
2021/06/05 05:15:48;;;;;;;80.50;52.03;;;;;;;-150.07;53.32;63584.34;5024247;28;20087;-82
2021/06/05 05:18:16;;;;;;;88.22;57.50;;;;;;;-150.07;54.19;63441.97;4996964;28;20050;-85
2021/06/05 05:20:44;;;;;;;87.15;52.80;;;;;;;-150.07;54.26;63494.31;5010393;28;20026;-84
2021/06/05 05:23:13;;;;;;;88.60;56.58;;;;;;;-150.07;54.36;63525.72;4989614;28;20542;-84
2021/06/05 05:25:41;;;;;;;85.65;55.53;;;;;;;-150.07;54.20;63504.78;4977386;28;20450;-82
2021/06/05 05:28:09;;;;;;;86.97;51.88;;;;;;;-150.07;54.37;63502.69;4983153;28;20478;-84
2021/06/05 05:30:40;;;;;;;89.15;57.75;;;;;;;-150.07;54.03;63483.84;5000185;28;20034;-85
2021/06/05 05:33:09;;;;;;;81.20;52.50;;;;;;;-150.07;53.76;63261.94;5011344;28;20029;-85
2021/06/05 05:35:36;;;;;;;81.70;53.45;;;;;;;-150.07;53.71;63578.06;4994245;28;20109;-83
2021/06/05 05:38:05;;;;;;;80.22;51.47;;;;;;;-150.07;53.85;64300.44;4990150;28;20022;-84
2021/06/05 05:40:32;;;;;;;93.32;50.45;;;;;;;-150.07;54.02;63465.00;4992607;28;20040;-84
2021/06/05 05:42:59;;;;;;;88.65;49.85;;;;;;;-150.07;53.90;63538.28;5001188;28;20026;-86
2021/06/05 05:45:26;;;;;;;80.00;50.10;;;;;;;-150.07;55.37;63111.19;5012007;28;20033;-87
2021/06/05 05:47:57;;;;;;;83.00;52.75;;;;;;;-150.07;54.83;63182.38;4981117;28;20046;-86
2021/06/05 05:50:26;;;;;;;88.07;51.70;;;;;;;-150.07;54.61;63439.88;4980694;28;20487;-86
2021/06/05 05:52:53;;;;;;;80.32;51.28;;;;;;;-150.07;54.79;63276.56;4994250;28;20029;-85
2021/06/05 05:55:20;;;;;;;83.93;53.17;;;;;;;-150.07;56.13;63186.56;4994122;28;20116;-87
2021/06/05 05:57:48;;;;;;;86.82;53.95;;;;;;;-150.07;56.81;62926.97;4994223;28;20033;-85
2021/06/05 06:00:22;;;;;;;85.25;54.50;;;;;;;-150.07;57.21;63090.25;4983963;28;20058;-88
2021/06/05 06:02:49;;;;;;;85.78;54.65;;;;;;;-150.07;57.62;62874.66;4987183;28;20049;-87
2021/06/05 06:05:16;;;;;;;84.88;52.88;;;;;;;-150.07;56.38;63012.81;4994014;28;20113;-87
2021/06/05 06:07:43;;;;;;;87.60;55.92;;;;;;;-150.07;56.20;63789.50;4974358;28;20027;-87
2021/06/05 06:10:21;;;;;;;87.15;53.75;;;;;;;-150.07;56.43;63182.38;5001833;28;20030;-87
2021/06/05 06:12:48;;;;;;;91.38;55.33;;;;;;;-150.07;56.95;63077.69;4975065;28;20064;-87
2021/06/05 06:15:19;;;;;;;92.68;52.15;;;;;;;-150.07;58.07;63025.38;4989227;28;21273;-88
2021/06/05 06:17:47;;;;;;;95.35;59.55;;;;;;;-150.07;57.47;63153.06;4993851;28;20069;-87
2021/06/05 06:20:25;;;;;;;91.07;54.22;;;;;;;-150.07;57.57;62897.69;4982519;28;20030;-88
2021/06/05 06:22:52;;;;;;;94.60;56.95;;;;;;;-150.07;57.57;63054.69;4979438;28;20090;-87
2021/06/05 06:25:22;;;;;;;100.15;57.78;;;;;;;-150.07;58.27;63031.66;4976433;28;20031;-87
2021/06/05 06:27:49;;;;;;;;;;;;;;;-150.07;57.75;63123.75;4993335;28;20037;-87
2021/06/05 06:30:21;;;;;;;100.53;57.42;;;;;;;-150.07;57.81;63077.69;5001919;28;19921;-86
2021/06/05 06:32:52;;;;;;;101.22;61.10;;;;;;;-150.07;58.92;62625.56;5005716;28;20034;-87
2021/06/05 06:35:23;;;;;;;99.85;56.17;;;;;;;-150.07;58.69;62991.88;5001532;28;20025;-87
2021/06/05 06:37:50;;;;;;;88.60;54.40;;;;;;;-150.07;58.54;62780.44;4991886;28;20070;-86
2021/06/05 06:40:20;;;;;;;101.97;55.55;;;;;;;-150.07;57.54;63086.06;5003421;28;20041;-86
2021/06/05 06:42:47;;;;;;;90.55;54.78;;;;;;;-150.07;57.09;62922.78;5010506;28;20054;-86
2021/06/05 06:45:15;;;;;;;89.20;53.60;;;;;;;-150.07;56.76;63063.06;4998006;28;20044;-87
2021/06/05 06:47:42;;;;;;;85.85;52.95;;;;;;;-150.07;56.81;63002.34;4996548;28;20080;-87
2021/06/05 06:50:12;;;;;;;80.03;52.00;;;;;;;-150.07;57.14;63163.53;5020557;28;20032;-87
2021/06/05 06:52:39;;;;;;;79.68;52.97;;;;;;;-150.07;55.80;63228.44;5003595;28;20455;-88
2021/06/05 06:55:07;;;;;;;85.28;54.00;;;;;;;-150.07;56.49;63107.00;5000313;28;20038;-87
2021/06/05 06:57:34;;;;;;;93.45;52.28;;;;;;;-150.07;56.35;62973.03;5013753;28;20037;-86
2021/06/05 07:00:01;;;;;;;83.40;52.53;;;;;;;-150.07;56.24;62985.59;5003984;28;20030;-87
2021/06/05 07:02:28;;;;;;;88.50;52.25;;;;;;;-150.07;56.74;63140.50;5020686;28;20037;-85
2021/06/05 07:04:55;;;;;;;87.15;51.97;;;;;;;-150.07;55.73;63224.25;4999289;28;20030;-86
2021/06/05 07:07:22;;;;;;;80.10;50.20;;;;;;;-150.07;55.36;63364.50;5002047;28;20045;-85
2021/06/05 07:09:48;;;;;;;74.90;49.85;;;;;;;-150.07;54.72;63676.44;5008767;28;20030;-85
2021/06/05 07:12:15;;;;;;;84.07;47.72;;;;;;;-150.07;54.93;63316.34;4987860;28;20037;-83
2021/06/05 07:14:42;;;;;;;73.15;46.53;;;;;;;-150.07;54.62;63295.41;4997176;28;20041;-83
2021/06/05 07:17:09;;;;;;;76.10;48.17;;;;;;;-150.07;54.62;63324.72;5012009;28;20037;-84
2021/06/05 07:19:36;;;;;;;69.88;44.05;;;;;;;-150.07;54.00;63366.59;5026736;28;20049;-84
2021/06/05 07:22:04;;;;;;;77.50;47.15;;;;;;;-150.07;53.94;64220.84;4997881;28;20085;-85
2021/06/05 07:24:31;;;;;;;82.22;48.60;;;;;;;-150.07;53.55;63915.13;5011051;28;20105;-84
2021/06/05 07:26:58;;;;;;;78.72;45.88;;;;;;;-150.07;53.47;63550.84;4993613;28;20029;-83
2021/06/05 07:29:25;;;;;;;76.93;47.90;;;;;;;-150.07;53.22;63498.50;4995727;28;20027;-83
2021/06/05 07:31:53;;;;;;;77.97;45.00;;;;;;;-150.07;52.93;63578.06;4996717;28;20506;-84
2021/06/05 07:34:23;;;;;;;75.68;45.53;;;;;;;-150.07;53.23;63418.94;4997902;28;20038;-82
2021/06/05 07:37:08;;;;;;;65.10;42.55;;;;;;;-150.07;53.40;63567.59;4993349;28;20060;-83
2021/06/05 07:39:36;;;;;;;71.43;45.22;;;;;;;-150.07;53.36;63351.94;5002105;28;20538;-83
2021/06/05 07:42:05;;;;;;;71.65;44.60;;;;;;;-150.07;53.43;63536.19;4986502;28;20064;-81
2021/06/05 07:44:33;;;;;;;81.57;46.73;;;;;;;-150.07;53.67;63404.28;5015500;28;20018;-84
2021/06/05 07:47:04;;;;;;;72.80;42.70;;;;;;;-150.07;53.75;63523.63;4984320;28;20033;-85
2021/06/05 07:49:37;;;;;;;77.65;42.50;;;;;;;-150.07;53.46;63559.22;5005548;28;20037;-84
2021/06/05 07:52:08;;;;;;;78.88;44.47;;;;;;;-150.07;53.79;63492.22;5005531;28;22218;-86
2021/06/05 07:54:35;;;;;;;82.78;44.50;;;;;;;-150.07;53.61;63245.19;4988580;28;20037;-82
2021/06/05 07:57:02;;;;;;;77.72;45.35;;;;;;;-150.07;53.06;63347.75;4996434;28;20148;-84
2021/06/05 07:59:34;;;;;;;74.70;43.40;;;;;;;-150.07;53.76;63408.47;5009522;28;20049;-83
2021/06/05 08:02:01;;;;;;;74.20;44.20;;;;;;;-150.07;53.78;63060.97;5003801;28;20032;-83
2021/06/05 08:04:27;;;;;;;70.80;45.47;;;;;;;-150.07;53.82;63291.22;4989028;28;20543;-85
2021/06/05 08:06:56;;;;;;;78.40;46.95;;;;;;;-150.07;54.07;64153.84;5009062;28;20038;-85
2021/06/05 08:09:23;;;;;;;75.95;45.22;;;;;;;-150.07;54.27;63322.63;4979610;28;20030;-85
2021/06/05 08:11:50;;;;;;;84.80;49.13;;;;;;;-150.07;54.47;63471.28;5010041;28;20068;-85
2021/06/05 08:14:16;;;;;;;76.63;48.38;;;;;;;-150.07;54.54;63243.09;4994831;28;20026;-84
2021/06/05 08:16:43;;;;;;;98.13;48.10;;;;;;;-150.07;54.16;64191.53;4983947;28;20022;-85
2021/06/05 08:19:14;;;;;;;74.05;44.08;;;;;;;-150.07;53.91;64082.66;5012230;28;20033;-84
2021/06/05 08:21:43;;;;;;;71.22;43.20;;;;;;;-150.07;54.02;63473.38;4983614;28;20038;-84
2021/06/05 08:24:11;;;;;;;68.47;44.00;;;;;;;-150.07;53.97;64162.22;5000770;28;20041;-85
2021/06/05 08:26:39;;;;;;;74.75;46.15;;;;;;;-150.07;54.92;63345.66;4988479;28;20038;-85
2021/06/05 08:29:06;;;;;;;77.43;44.67;;;;;;;-150.07;55.17;63174.00;5004136;28;20058;-85
2021/06/05 08:31:37;;;;;;;87.72;48.50;;;;;;;-150.07;55.75;63230.53;5004682;28;20099;-86
2021/06/05 08:34:04;;;;;;;70.68;48.00;;;;;;;-150.07;56.18;63228.44;5002065;28;20122;-86
2021/06/05 08:36:36;;;;;;;76.55;50.45;;;;;;;-150.07;56.07;63201.22;5012678;28;20072;-88
2021/06/05 08:39:09;;;;;;;83.28;49.08;;;;;;;-150.07;57.41;63002.34;4980174;28;20030;-86
2021/06/05 08:41:38;;;;;;;83.45;50.70;;;;;;;-150.07;57.43;63052.59;4995336;28;20049;-87
2021/06/05 08:44:16;;;;;;;85.93;49.55;;;;;;;-150.07;57.26;63343.56;5003111;28;20075;-87
2021/06/05 08:46:48;;;;;;;81.15;48.47;;;;;;;-150.07;56.35;63150.97;4993801;28;20395;-85
2021/06/05 08:49:22;;;;;;;72.20;48.35;;;;;;;-150.07;56.93;63088.16;4987026;28;20021;-87
2021/06/05 08:52:07;;;;;;;81.55;49.95;;;;;;;-150.07;56.72;63100.72;5011895;28;20021;-86
2021/06/05 08:55:05;;;;;;;82.50;48.53;;;;;;;-150.07;56.86;63060.97;5008193;28;20026;-86
2021/06/05 08:57:43;;;;;;;81.47;46.28;;;;;;;-150.07;56.76;63052.59;4986949;28;20108;-87
2021/06/05 09:00:10;;;;;;;73.97;47.45;;;;;;;-150.07;56.74;63083.97;5005425;28;20336;-85
2021/06/05 09:02:39;;;;;;;88.28;48.30;;;;;;;-150.07;56.51;63092.34;4989056;28;20076;-85
2021/06/05 09:05:11;;;;;;;79.93;43.88;;;;;;;-150.07;56.57;62941.63;5007855;28;20491;-89
2021/06/05 09:07:39;;;;;;;84.40;47.33;;;;;;;-150.07;56.66;63387.53;5004847;28;20030;-85
2021/06/05 09:10:07;;;;;;;70.05;44.95;;;;;;;-150.07;56.51;62973.03;5010284;28;20498;-86
2021/06/05 09:12:33;;;;;;;62.03;40.55;;;;;;;-150.07;56.66;62880.94;4997433;28;20026;-85
2021/06/05 09:15:01;;;;;;;74.25;46.85;;;;;;;-150.07;57.29;62826.50;4985402;28;20368;-86
2021/06/05 09:17:36;;;;;;;69.45;44.45;;;;;;;-150.07;56.48;63123.75;4993972;28;20038;-83
2021/06/05 09:20:08;;;;;;;69.05;45.50;;;;;;;-150.07;56.46;63163.53;5025807;28;20026;-84
2021/06/05 09:22:39;;;;;;;69.47;44.83;;;;;;;-150.07;56.07;63155.16;5011551;28;20577;-84
2021/06/05 09:25:24;;;;;;;61.45;42.88;;;;;;;-150.07;56.29;63161.44;4992402;28;20048;-89
2021/06/05 09:27:52;;;;;;;74.28;44.20;;;;;;;-150.07;55.82;63092.34;5007517;28;20088;-90
2021/06/05 09:30:37;;;;;;;88.00;43.80;;;;;;;-150.07;55.56;63086.06;4996341;28;20479;-86
2021/06/05 09:33:11;;;;;;;68.85;41.70;;;;;;;-150.07;55.83;63132.13;4992987;28;20030;-89
2021/06/05 09:35:46;;;;;;;74.75;44.60;;;;;;;-150.07;55.96;63109.09;5008065;28;20372;-89
2021/06/05 09:38:38;;;;;;;78.75;43.20;;;;;;;-150.07;55.70;63096.53;4983518;28;20030;-84
2021/06/05 09:41:16;;;;;;;76.63;43.22;;;;;;;-150.07;56.00;63044.22;4987963;28;20121;-85
2021/06/05 09:43:45;;;;;;;75.22;45.10;;;;;;;-150.07;56.16;62872.56;5006205;28;20048;-81
2021/06/05 09:46:43;;;;;;;75.55;42.70;;;;;;;-150.07;56.37;62874.66;5006731;28;20109;-83
2021/06/05 09:49:28;;;;;;;73.15;43.10;;;;;;;-150.07;55.98;63031.66;4974377;28;20572;-81
2021/06/05 09:52:13;;;;;;;67.00;39.83;;;;;;;-150.07;55.77;62998.16;5003632;28;20057;-85
2021/06/05 09:54:43;;;;;;;62.83;39.53;;;;;;;-150.07;55.60;63194.94;5009010;28;20029;-81
2021/06/05 09:57:37;;;;;;;73.80;42.05;;;;;;;-150.07;55.24;62839.06;5025551;28;20037;-85
2021/06/05 10:00:10;;;;;;;63.10;39.90;;;;;;;-150.07;55.63;63125.84;5004667;28;20032;-80
2021/06/05 10:02:40;;;;;;;62.20;40.33;;;;;;;-150.07;55.45;62989.78;5011811;28;20036;-82
2021/06/05 10:05:27;;;;;;;68.07;41.35;;;;;;;-150.07;55.56;63125.84;5025186;28;20029;-81
2021/06/05 10:07:56;;;;;;;59.40;39.60;;;;;;;-150.07;55.73;62956.28;5023674;28;20038;-83
2021/06/05 10:10:32;;;;;;;66.47;39.38;;;;;;;-150.07;55.06;63123.75;4989458;28;20030;-83
2021/06/05 10:13:02;;;;;;;68.10;43.65;;;;;;;-150.07;55.32;62956.28;4991086;28;20026;-84
2021/06/05 10:15:41;;;;;;;74.63;39.20;;;;;;;-150.07;55.72;62914.41;4996259;28;20034;-84
2021/06/05 10:18:23;;;;;;;68.30;42.47;;;;;;;-150.07;56.11;62964.66;5012562;28;20506;-86
2021/06/05 10:20:58;;;;;;;68.93;38.95;;;;;;;-150.07;55.84;63521.53;5003377;28;20038;-85
2021/06/05 10:23:29;;;;;;;62.05;39.85;;;;;;;-150.07;56.15;63812.53;4979074;28;20113;-84
2021/06/05 10:26:00;;;;;;;65.13;41.20;;;;;;;-150.07;56.31;62954.19;4975607;28;20463;-85
2021/06/05 10:28:34;;;;;;;74.03;42.03;;;;;;;-150.07;56.49;62985.59;4993723;28;20030;-84
2021/06/05 10:31:04;;;;;;;60.92;40.10;;;;;;;-150.07;56.56;63040.03;4993404;28;20038;-83
2021/06/05 10:33:50;;;;;;;66.63;41.03;;;;;;;-150.07;57.04;63429.41;4991898;28;20041;-83
2021/06/05 10:36:26;;;;;;;81.93;42.13;;;;;;;-150.07;57.24;62931.16;4975963;28;20030;-83
2021/06/05 10:39:10;;;;;;;72.05;41.83;;;;;;;-150.07;57.33;62824.41;4989298;28;20517;-84
2021/06/05 10:41:44;;;;;;;75.50;42.72;;;;;;;-150.07;57.51;62874.66;5002456;28;20056;-82
2021/06/05 10:44:12;;;;;;;72.10;44.03;;;;;;;-150.07;58.01;62608.81;4994103;28;20029;-83
2021/06/05 10:47:08;;;;;;;74.93;47.42;;;;;;;-150.07;58.29;62868.38;4994693;28;21041;-84
2021/06/05 10:49:48;;;;;;;73.50;43.33;;;;;;;-150.07;58.66;62822.31;4958538;28;20051;-85
2021/06/05 10:52:46;;;;;;;;;;;;;;;-150.07;59.90;62715.56;4994788;28;20034;-84
2021/06/05 10:55:28;;;;;;;78.57;44.20;;;;;;;-150.07;59.97;62742.78;4970411;28;20047;-89
2021/06/05 10:58:16;;;;;;;71.70;45.25;;;;;;;-150.07;60.62;62709.28;5010741;28;20022;-79
2021/06/05 11:00:43;;;;;;;73.97;47.97;;;;;;;-150.07;61.32;62675.78;4991059;28;20047;-79
2021/06/05 11:03:22;;;;;;;77.78;47.05;;;;;;;-150.07;60.92;62684.16;5006860;28;20030;-79
2021/06/05 11:06:04;;;;;;;86.22;49.72;;;;;;;-150.07;60.91;62579.50;5000091;28;21452;-78
2021/06/05 11:08:41;;;;;;;72.00;43.88;;;;;;;-150.07;60.60;62713.47;5009860;28;20120;-79
2021/06/05 11:11:08;;;;;;;80.40;48.30;;;;;;;-150.07;60.71;62684.16;5010626;28;20482;-79
2021/06/05 11:13:35;;;;;;;83.28;49.03;;;;;;;-150.07;60.22;62696.72;4992973;28;20120;-79
2021/06/05 11:16:10;;;;;;;74.03;48.75;;;;;;;-150.07;60.54;62723.94;5010957;28;20018;-78
2021/06/05 11:18:39;;;;;;;77.15;46.30;;;;;;;-150.07;60.15;62698.81;5012720;28;20041;-79